Time;durP1;ratioP1;P1;durP2;ratioP2;P2;SDS_P1;SDS_P2;PMS_P1;PMS_P2;Temp;Humidity;BMP_temperature;BMP_pressure;BME280_temperature;BME280_humidity;BME280_pressure;Samples;Min_cycle;Max_cycle;Signal;HPM_P1;HPM_P2
2023/02/20 00:01:20;;;;;;;5.33;2.33;;;;;;;20.36;51.06;98430.19;4937829;29;20256;-84
2023/02/20 00:03:46;;;;;;;3.43;2.10;;;;;;;20.35;50.93;98426.78;4930076;29;20291;-84
2023/02/20 00:06:13;;;;;;;7.00;2.47;;;;;;;20.36;51.22;98425.09;4938336;29;20205;-84
2023/02/20 00:08:40;;;;;;;5.03;2.30;;;;;;;19.13;50.85;98214.06;4929835;29;20695;-84
2023/02/20 00:11:06;;;;;;;3.27;2.10;;;;;;;20.35;51.01;98419.13;4918276;29;20201;-83
2023/02/20 00:13:33;;;;;;;6.00;2.60;;;;;;;20.00;51.03;98368.00;4941644;29;20209;-85
2023/02/20 00:15:59;;;;;;;4.57;2.40;;;;;;;19.48;50.96;98293.19;4944630;28;20212;-83
2023/02/20 00:18:26;;;;;;;5.60;2.83;;;;;;;19.98;51.16;98365.38;4954309;28;20216;-84
2023/02/20 00:20:53;;;;;;;4.47;2.27;;;;;;;20.03;51.52;98373.25;4945888;28;20302;-84
2023/02/20 00:23:19;;;;;;;4.77;2.10;;;;;;;19.66;51.02;98304.28;4953922;28;20275;-84
2023/02/20 00:25:46;;;;;;;4.83;2.70;;;;;;;20.01;51.05;98371.44;4938274;29;20307;-84
2023/02/20 00:28:12;;;;;;;2.87;1.83;;;;;;;20.35;50.97;98431.88;4936632;29;20240;-82
2023/02/20 00:30:39;;;;;;;3.60;2.10;;;;;;;20.29;50.49;98421.38;4935264;29;20207;-84
2023/02/20 00:33:06;;;;;;;2.53;1.80;;;;;;;20.36;51.16;98432.75;4944835;28;20307;-85
2023/02/20 00:35:32;;;;;;;4.17;2.00;;;;;;;20.03;51.39;98375.81;4940998;29;20669;-84
2023/02/20 00:37:59;;;;;;;3.93;2.00;;;;;;;19.19;50.88;98244.09;4944284;28;20260;-85
2023/02/20 00:40:25;;;;;;;6.30;1.93;;;;;;;20.02;50.66;98372.38;4937148;29;20221;-84
2023/02/20 00:42:52;;;;;;;4.20;2.13;;;;;;;19.22;50.89;98231.50;4943442;29;20232;-84
2023/02/20 00:45:19;;;;;;;4.00;2.20;;;;;;;20.38;50.57;98433.69;4920005;29;20229;-84
2023/02/20 00:47:45;;;;;;;4.07;2.47;;;;;;;20.07;51.21;98384.50;4937619;29;20218;-84
2023/02/20 00:50:12;;;;;;;3.20;2.23;;;;;;;20.10;50.79;98397.41;4959362;28;20237;-82
2023/02/20 00:52:39;;;;;;;3.03;2.00;;;;;;;20.39;50.34;98436.34;4940617;29;20225;-84
2023/02/20 00:55:06;;;;;;;2.57;1.80;;;;;;;19.34;50.63;98266.16;4939382;28;20674;-84
2023/02/20 00:57:32;;;;;;;3.70;1.83;;;;;;;18.91;50.69;98182.34;4956458;28;20212;-84
2023/02/20 00:59:59;;;;;;;2.83;2.03;;;;;;;20.40;50.76;98429.56;4961088;28;20251;-84
2023/02/20 01:02:25;;;;;;;4.13;2.20;;;;;;;20.15;50.77;98388.31;4941317;29;20308;-85
2023/02/20 01:04:52;;;;;;;2.73;1.90;;;;;;;20.41;50.77;98432.19;4956841;28;20208;-84
2023/02/20 01:07:19;;;;;;;3.30;1.80;;;;;;;19.89;50.51;98330.91;4934652;29;20213;-84
2023/02/20 01:09:45;;;;;;;3.67;2.00;;;;;;;20.42;50.93;98421.16;4943208;29;20291;-84
2023/02/20 01:12:15;;;;;;;2.83;1.93;;;;;;;19.78;50.55;98312.53;4939439;29;20292;-81
2023/02/20 01:14:41;;;;;;;4.20;2.40;;;;;;;20.43;50.90;98415.22;4923951;29;20627;-84
2023/02/20 01:17:08;;;;;;;2.40;1.70;;;;;;;20.01;50.71;98343.38;4937107;29;20239;-84
2023/02/20 01:19:35;;;;;;;3.73;1.90;;;;;;;20.33;50.65;98424.94;4940963;29;20215;-84
2023/02/20 01:22:05;;;;;;;3.87;2.40;;;;;;;20.44;50.71;98423.78;4939183;29;20279;-84
2023/02/20 01:24:32;;;;;;;3.17;2.03;;;;;;;20.45;50.80;98422.97;4940456;29;20591;-84
2023/02/20 01:26:58;;;;;;;3.60;2.00;;;;;;;20.46;50.81;98419.63;4938796;29;20237;-86
2023/02/20 01:29:25;;;;;;;2.83;1.80;;;;;;;20.46;50.54;98417.09;4946759;29;20240;-84
2023/02/20 01:31:51;;;;;;;2.93;2.00;;;;;;;20.46;50.72;98423.03;4940157;28;20599;-85
2023/02/20 01:34:18;;;;;;;5.17;2.03;;;;;;;20.46;50.50;98411.97;4941580;29;20212;-84
2023/02/20 01:36:49;;;;;;;3.07;1.90;;;;;;;20.20;50.69;98372.44;4922710;29;20204;-84
2023/02/20 01:39:20;;;;;;;3.20;1.90;;;;;;;19.90;50.62;98330.97;4956767;28;20284;-85
2023/02/20 01:41:47;;;;;;;3.23;2.00;;;;;;;19.93;50.54;98331.13;4903497;29;20222;-84
2023/02/20 01:44:28;;;;;;;4.03;2.00;;;;;;;19.78;50.54;98286.16;4940558;29;20293;-84
2023/02/20 01:46:55;;;;;;;2.53;1.83;;;;;;;19.91;50.48;98316.53;4928662;29;20218;-83
2023/02/20 01:49:28;;;;;;;3.70;2.40;;;;;;;18.52;50.57;98081.06;4953555;28;20642;-84
2023/02/20 01:52:26;;;;;;;3.80;2.00;;;;;;;20.48;50.67;98420.56;4923515;29;20593;-84
2023/02/20 01:55:07;;;;;;;2.10;1.90;;;;;;;20.48;50.83;98413.78;4927677;29;20205;-84
2023/02/20 01:57:34;;;;;;;4.67;1.90;;;;;;;20.50;50.58;98411.31;4955554;28;20201;-84
2023/02/20 02:00:13;;;;;;;2.80;1.90;;;;;;;20.34;50.63;98391.81;4928573;29;20208;-84
2023/02/20 02:02:43;;;;;;;2.47;1.77;;;;;;;20.48;50.73;98402.69;4938610;29;20232;-84
2023/02/20 02:05:10;;;;;;;2.60;1.90;;;;;;;20.21;50.65;98361.41;4923914;29;20206;-86
2023/02/20 02:07:37;;;;;;;2.60;2.00;;;;;;;20.48;50.56;98407.78;4933399;29;20644;-85
2023/02/20 02:10:15;;;;;;;2.70;1.80;;;;;;;20.24;50.60;98366.66;4930482;29;20204;-84
2023/02/20 02:12:44;;;;;;;2.20;1.87;;;;;;;19.51;50.77;98249.97;4951334;28;20252;-84
2023/02/20 02:15:15;;;;;;;1.73;1.53;;;;;;;19.94;50.73;98326.91;4938649;29;20200;-85
2023/02/20 02:17:54;;;;;;;2.00;1.80;;;;;;;19.42;50.80;98210.44;4918502;29;20204;-85
2023/02/20 02:20:42;;;;;;;3.87;1.73;;;;;;;20.49;50.87;98402.75;4924724;29;20226;-85
2023/02/20 02:23:27;;;;;;;2.93;1.80;;;;;;;20.49;50.52;98392.53;4935211;29;20290;-84
2023/02/20 02:26:09;;;;;;;4.47;1.90;;;;;;;20.50;50.50;98393.44;4960073;28;20204;-84
2023/02/20 02:28:39;;;;;;;2.43;1.80;;;;;;;20.50;50.62;98398.53;4931436;29;20206;-84
2023/02/20 02:31:27;;;;;;;3.87;1.83;;;;;;;20.50;50.58;98395.97;4932031;29;20622;-84
2023/02/20 02:33:58;;;;;;;2.10;1.60;;;;;;;20.51;50.52;98387.50;4925821;29;20295;-84
2023/02/20 02:36:36;;;;;;;3.50;1.87;;;;;;;20.50;50.67;98396.88;4928145;29;20205;-84
2023/02/20 02:39:29;;;;;;;3.67;1.83;;;;;;;20.50;50.46;98391.75;4935274;29;20295;-84
2023/02/20 02:41:55;;;;;;;2.90;1.70;;;;;;;20.50;50.58;98396.88;4948989;28;20229;-84
2023/02/20 02:44:46;;;;;;;2.67;1.60;;;;;;;20.50;50.71;98399.44;4934055;29;20237;-84
2023/02/20 02:47:49;;;;;;;2.10;1.63;;;;;;;20.51;50.57;98396.06;4931992;29;20197;-84
2023/02/20 02:50:22;;;;;;;2.00;1.40;;;;;;;20.50;50.61;98440.28;4919048;29;20289;-84
2023/02/20 02:52:49;;;;;;;1.60;1.50;;;;;;;19.83;50.13;98277.03;4906657;29;20323;-84
2023/02/20 02:55:20;;;;;;;3.43;2.00;;;;;;;20.50;50.56;98389.22;4933768;29;20204;-84
2023/02/20 02:57:46;;;;;;;2.80;1.50;;;;;;;17.72;50.45;97902.38;4939610;29;20388;-84
2023/02/20 03:00:22;;;;;;;4.30;1.63;;;;;;;19.39;50.53;98205.19;4933547;29;20206;-81
2023/02/20 03:03:08;;;;;;;2.13;1.60;;;;;;;17.51;50.56;97860.66;4924164;29;20235;-85
2023/02/20 03:05:54;;;;;;;2.57;1.30;;;;;;;20.50;50.62;98383.22;4939232;29;20207;-85
2023/02/20 03:08:43;;;;;;;3.13;1.80;;;;;;;19.06;50.57;98180.56;4935987;29;20201;-86
2023/02/20 03:11:13;;;;;;;4.43;1.53;;;;;;;20.50;50.52;98381.56;4946005;28;20623;-84
2023/02/20 03:17:10;;;;;;;3.30;1.80;;;;;;;20.17;50.45;98321.25;4930039;29;20220;-84
2023/02/20 03:19:40;;;;;;;1.87;1.50;;;;;;;20.48;50.36;98397.59;4913938;29;20209;-83
2023/02/20 03:22:19;;;;;;;3.93;1.80;;;;;;;19.70;50.44;98252.63;4920730;29;20706;-84
2023/02/20 03:24:57;;;;;;;3.83;1.63;;;;;;;20.47;50.58;98391.63;4933482;29;20204;-84
2023/02/20 03:27:37;;;;;;;2.97;1.53;;;;;;;20.47;50.57;98390.72;4939357;29;20233;-82
2023/02/20 03:30:06;;;;;;;3.13;1.60;;;;;;;18.51;50.50;98051.34;4918287;29;20228;-85
2023/02/20 03:43:44;;;;;;;2.10;1.47;;;;;;;17.28;50.48;97904.28;4932843;29;20645;-82
2023/02/20 03:46:13;;;;;;;3.87;1.80;;;;;;;20.44;50.41;98378.72;4933034;29;20209;-84
2023/02/20 03:48:51;;;;;;;2.10;1.53;;;;;;;20.44;50.45;98376.16;4913727;29;20642;-84
2023/02/20 03:51:20;;;;;;;2.50;1.70;;;;;;;19.75;50.30;98271.56;4929827;29;20336;-84
2023/02/20 03:53:50;;;;;;;2.70;1.70;;;;;;;20.44;50.39;98381.25;4946006;29;20239;-85
2023/02/20 03:56:27;;;;;;;3.67;1.90;;;;;;;20.46;50.56;98382.19;4925738;29;20206;-81
2023/02/20 03:58:57;;;;;;;2.93;1.70;;;;;;;19.69;50.50;98245.78;4915134;29;20215;-85
2023/02/20 04:01:26;;;;;;;2.33;1.63;;;;;;;18.50;50.46;98036.88;4932684;29;20225;-85
2023/02/20 04:03:53;;;;;;;2.70;1.60;;;;;;;20.47;50.67;98377.97;4925803;29;20213;-83
2023/02/20 04:06:21;;;;;;;2.57;1.53;;;;;;;20.46;50.66;98383.88;4931025;29;20256;-80
2023/02/20 04:09:04;;;;;;;2.47;1.77;;;;;;;18.94;50.55;98122.25;4925300;29;20264;-85
2023/02/20 04:11:48;;;;;;;2.33;1.60;;;;;;;20.47;50.70;98386.50;4931246;29;20218;-79
2023/02/20 04:14:15;;;;;;;1.83;1.40;;;;;;;20.48;50.65;98389.91;4926331;29;20595;-84
2023/02/20 04:16:46;;;;;;;2.50;1.60;;;;;;;20.14;50.56;98333.88;4927874;29;20257;-84
2023/02/20 04:19:14;;;;;;;6.20;1.90;;;;;;;18.86;50.39;98143.91;4902223;29;20299;-84
2023/02/20 04:21:44;;;;;;;3.07;1.70;;;;;;;20.47;50.54;98395.84;4930529;29;20268;-85
2023/02/20 04:24:15;;;;;;;3.33;1.80;;;;;;;19.93;50.73;98313.25;4917168;29;20205;-84
2023/02/20 04:26:44;;;;;;;3.93;1.40;;;;;;;15.34;50.38;97499.97;4912740;29;20214;-85
2023/02/20 04:29:11;;;;;;;2.47;1.57;;;;;;;20.48;50.55;98397.59;4927682;29;20222;-84
2023/02/20 04:31:37;;;;;;;2.33;1.67;;;;;;;18.49;50.52;98040.19;4918330;29;20225;-84
2023/02/20 04:34:04;;;;;;;1.80;1.60;;;;;;;20.47;50.38;98396.72;4935860;29;20704;-85
2023/02/20 04:36:31;;;;;;;4.57;1.70;;;;;;;20.49;50.37;98396.78;4938380;29;20312;-84
2023/02/20 04:38:58;;;;;;;2.33;1.50;;;;;;;19.93;50.04;98355.78;4934544;29;20205;-79
2023/02/20 04:41:25;;;;;;;2.50;1.50;;;;;;;20.49;50.62;98396.78;4934187;29;20307;-82
2023/02/20 04:44:29;;;;;;;1.80;1.30;;;;;;;19.61;50.12;98252.19;4917789;29;20209;-84
2023/02/20 04:46:38;;;;;;;2.33;1.80;;;;;;;18.13;50.03;97989.22;4918864;29;20208;-84
2023/02/20 04:49:05;;;;;;;7.67;1.50;;;;;;;16.80;50.21;97758.69;4936805;29;20555;-84
2023/02/20 04:51:34;;;;;;;2.33;1.50;;;;;;;18.46;50.05;98112.19;4936523;29;20228;-84
2023/02/20 04:54:01;;;;;;;2.07;1.40;;;;;;;11.18;49.72;96902.59;4935353;29;20244;-84
2023/02/20 04:56:27;;;;;;;2.60;1.50;;;;;;;12.76;50.41;97143.56;4936546;29;20212;-84
2023/02/20 04:58:54;;;;;;;1.87;1.43;;;;;;;20.46;50.49;98392.41;4934390;29;20244;-84
2023/02/20 05:01:20;;;;;;;2.23;1.50;;;;;;;20.13;50.35;98334.66;4924869;29;20778;-86
2023/02/20 05:03:47;;;;;;;3.43;1.80;;;;;;;20.46;50.49;98397.50;4929823;29;20202;-84
2023/02/20 05:06:14;;;;;;;2.30;1.30;;;;;;;19.62;50.89;98255.59;4934431;29;20215;-84
2023/02/20 05:08:40;;;;;;;1.77;1.27;;;;;;;20.13;50.51;98346.56;4936629;29;20209;-84
2023/02/20 05:11:09;;;;;;;2.20;1.40;;;;;;;14.86;50.20;97434.09;4935841;29;20268;-85
2023/02/20 05:13:35;;;;;;;1.90;1.60;;;;;;;18.14;50.53;97995.19;4936886;29;20252;-84
2023/02/20 05:16:15;;;;;;;2.03;1.40;;;;;;;19.60;50.63;98254.69;4918550;29;20205;-84
2023/02/20 05:18:42;;;;;;;3.53;2.00;;;;;;;19.26;50.84;98230.84;4935952;29;20209;-84
2023/02/20 05:40:11;;;;;;;2.23;1.80;;;;;;;19.28;51.07;98226.75;5172374;23;20239;-91
2023/02/20 05:42:40;;;;;;;4.43;1.80;;;;;;;19.82;50.83;98300.81;4978586;28;20239;-91
2023/02/20 05:45:08;;;;;;;5.27;1.90;;;;;;;18.58;50.74;98082.25;4968604;28;20204;-92
2023/02/20 05:47:37;;;;;;;7.17;1.93;;;;;;;19.64;50.73;98284.59;4974894;28;20193;-92
2023/02/20 05:50:04;;;;;;;3.50;2.07;;;;;;;18.34;50.69;98039.41;4971761;28;20200;-92
2023/02/20 05:52:30;;;;;;;9.13;1.90;;;;;;;18.86;50.59;98126.09;4974850;28;20205;-92
2023/02/20 05:54:57;;;;;;;2.60;1.70;;;;;;;18.35;50.89;98034.41;4976674;28;20264;-92
2023/02/20 05:57:23;;;;;;;4.73;2.40;;;;;;;18.89;50.55;98167.00;4971229;28;20192;-91
2023/02/20 05:59:50;;;;;;;4.77;1.83;;;;;;;19.03;50.77;98173.66;4973747;28;20206;-92
2023/02/20 06:02:17;;;;;;;7.00;2.07;;;;;;;18.72;50.83;98129.66;4956695;28;20205;-92
2023/02/20 06:04:44;;;;;;;6.50;1.70;;;;;;;18.19;50.54;98029.34;4935635;28;20213;-92
2023/02/20 06:07:11;;;;;;;3.57;1.80;;;;;;;18.88;49.23;98144.00;4937291;28;20186;-92
2023/02/20 06:09:42;;;;;;;5.07;1.50;;;;;;;20.18;47.91;98363.81;4949926;28;20208;-91
2023/02/20 06:12:08;;;;;;;8.40;1.80;;;;;;;19.18;46.98;98204.97;4966628;28;20257;-91
2023/02/20 06:14:35;;;;;;;3.73;1.67;;;;;;;19.12;46.13;98191.94;4949083;28;20229;-92
2023/02/20 06:17:01;;;;;;;4.93;2.20;;;;;;;19.30;45.72;98225.16;4966815;28;20216;-92
2023/02/20 06:19:28;;;;;;;6.13;2.50;;;;;;;18.70;44.88;98122.72;4959788;28;20209;-92
2023/02/20 06:21:57;;;;;;;4.33;2.53;;;;;;;18.94;44.09;98154.50;4946135;28;20306;-92
2023/02/20 06:24:24;;;;;;;6.37;3.00;;;;;;;19.23;43.00;98190.81;4962153;28;20275;-92
2023/02/20 06:26:51;;;;;;;8.10;2.90;;;;;;;19.46;42.89;98254.00;4945833;28;20209;-92
2023/02/20 06:29:18;;;;;;;7.47;2.50;;;;;;;19.81;42.52;98307.56;4962181;28;20231;-91
2023/02/20 06:31:44;;;;;;;4.90;2.67;;;;;;;20.18;42.05;98375.72;4969957;28;20215;-90
2023/02/20 06:34:11;;;;;;;6.47;2.80;;;;;;;19.54;41.64;98280.72;4959255;28;20232;-90
2023/02/20 06:36:39;;;;;;;6.07;2.73;;;;;;;20.16;41.79;98364.56;4947740;29;20211;-89
2023/02/20 06:39:07;;;;;;;6.17;2.97;;;;;;;20.21;41.72;98371.63;4963995;28;20302;-88
2023/02/20 06:41:33;;;;;;;3.57;2.43;;;;;;;20.06;41.82;98347.00;4965399;29;20286;-92
2023/02/20 06:44:00;;;;;;;4.73;2.10;;;;;;;19.76;41.75;98311.59;4945114;28;20189;-92
2023/02/20 06:46:27;;;;;;;4.53;2.20;;;;;;;19.95;41.73;98337.19;4952807;28;20257;-91
2023/02/20 06:48:55;;;;;;;6.50;2.40;;;;;;;20.23;41.94;98375.16;4957183;28;20189;-91
2023/02/20 06:51:27;;;;;;;3.90;2.60;;;;;;;19.38;41.48;98227.25;4967863;28;20257;-91
2023/02/20 06:53:53;;;;;;;6.53;2.33;;;;;;;19.52;42.03;98261.97;4974090;28;20195;-93
2023/02/20 06:56:22;;;;;;;3.33;2.20;;;;;;;18.36;41.45;98065.81;4956357;28;20204;-93
2023/02/20 06:58:52;;;;;;;5.83;2.13;;;;;;;18.95;41.72;98166.44;5080055;23;20230;-92
2023/02/20 07:01:20;;;;;;;4.27;2.17;;;;;;;19.96;41.35;98330.41;4945799;28;20200;-92
2023/02/20 07:03:52;;;;;;;5.03;2.33;;;;;;;19.26;41.18;98213.88;4927340;28;20189;-93
2023/02/20 07:06:23;;;;;;;3.40;2.07;;;;;;;19.00;41.44;98149.69;4923118;29;20205;-93
2023/02/20 07:08:49;;;;;;;3.03;2.17;;;;;;;18.41;41.39;98075.44;4932166;29;20197;-92
2023/02/20 07:11:17;;;;;;;4.53;1.90;;;;;;;18.90;41.29;98129.69;4937357;29;20219;-93
2023/02/20 07:13:44;;;;;;;2.63;1.83;;;;;;;18.76;41.31;98134.09;4929272;29;20226;-93
2023/02/20 07:16:11;;;;;;;5.77;1.70;;;;;;;19.73;40.91;98270.63;4923117;29;20257;-92
2023/02/20 07:18:38;;;;;;;8.93;2.80;;;;;;;19.36;40.74;98226.28;4932815;29;20186;-93
2023/02/20 07:21:04;;;;;;;6.20;2.67;;;;;;;20.42;40.62;98395.63;4917631;29;20212;-92
2023/02/20 07:23:31;;;;;;;5.27;2.67;;;;;;;19.34;40.32;98197.34;4949459;28;20221;-93
2023/02/20 07:25:57;;;;;;;5.63;2.57;;;;;;;20.00;39.96;98301.69;4932113;29;20277;-92
2023/02/20 07:28:24;;;;;;;7.93;2.40;;;;;;;19.52;40.03;98233.91;4935470;29;20269;-92
2023/02/20 07:30:51;;;;;;;3.53;2.13;;;;;;;20.07;40.50;98313.91;4938078;29;20196;-92
2023/02/20 07:33:17;;;;;;;5.67;2.20;;;;;;;18.49;40.25;98043.63;4937716;28;20187;-92
2023/02/20 07:35:44;;;;;;;5.00;2.20;;;;;;;19.66;40.20;98266.03;4936923;29;20353;-92
2023/02/20 07:38:11;;;;;;;5.13;2.70;;;;;;;20.01;40.26;98298.31;4945530;28;20253;-93
2023/02/20 07:40:37;;;;;;;3.67;2.03;;;;;;;20.00;40.31;98311.88;4929220;29;20210;-93
2023/02/20 07:43:05;;;;;;;2.63;1.90;;;;;;;20.06;40.60;98324.03;4934658;29;20221;-93
2023/02/20 07:45:32;;;;;;;3.20;2.20;;;;;;;20.02;40.31;98312.84;4917853;29;20216;-92
2023/02/20 07:47:59;;;;;;;2.53;1.77;;;;;;;20.05;40.67;98317.19;4936019;29;20193;-93
2023/02/20 07:50:25;;;;;;;4.00;2.07;;;;;;;19.61;40.26;98241.13;4934374;29;20210;-93
2023/02/20 07:52:52;;;;;;;4.03;2.03;;;;;;;20.07;40.24;98311.34;4936108;29;20237;-93
2023/02/20 07:55:18;;;;;;;2.50;1.90;;;;;;;20.49;40.31;98372.13;4915755;29;20234;-93
2023/02/20 07:57:46;;;;;;;2.07;1.60;;;;;;;19.89;40.24;98280.75;4900073;29;20229;-92
2023/02/20 08:00:14;;;;;;;2.90;2.00;;;;;;;19.34;40.24;98183.72;4934249;29;20255;-92
2023/02/20 08:02:41;;;;;;;3.47;1.97;;;;;;;20.74;40.22;98420.13;4917292;29;20240;-92
2023/02/20 08:05:08;;;;;;;2.80;1.90;;;;;;;19.79;40.31;98273.47;4946398;28;20234;-93
2023/02/20 08:07:34;;;;;;;4.60;2.23;;;;;;;19.51;40.18;98187.94;4950872;28;20226;-91
2023/02/20 08:10:01;;;;;;;2.20;1.73;;;;;;;20.56;40.43;98374.16;4952421;28;20197;-94
2023/02/20 08:12:28;;;;;;;2.53;1.70;;;;;;;20.12;40.40;98284.38;4923319;29;20257;-92
2023/02/20 08:14:54;;;;;;;2.63;1.90;;;;;;;19.21;40.04;98125.25;4939489;29;20232;-92
2023/02/20 08:17:21;;;;;;;2.67;1.70;;;;;;;20.27;39.97;98299.56;4936763;29;20182;-92
2023/02/20 08:19:47;;;;;;;2.77;1.80;;;;;;;20.17;40.24;98282.09;4954756;28;20193;-92
2023/02/20 08:22:14;;;;;;;5.13;1.83;;;;;;;19.42;39.57;98147.56;4938946;29;20220;-92
2023/02/20 08:24:41;;;;;;;2.67;1.60;;;;;;;20.18;39.56;98284.72;4939789;29;20214;-93
2023/02/20 08:27:07;;;;;;;2.60;1.80;;;;;;;20.29;39.75;98300.53;4953716;28;20206;-93
2023/02/20 08:29:34;;;;;;;2.13;1.63;;;;;;;20.41;39.79;98312.19;4934788;29;20792;-92
2023/02/20 08:32:00;;;;;;;2.40;1.60;;;;;;;20.79;39.51;98388.00;4923368;29;20229;-92
2023/02/20 08:34:27;;;;;;;2.43;1.63;;;;;;;20.88;39.28;98396.09;4939731;29;20236;-93
2023/02/20 08:36:54;;;;;;;1.87;1.50;;;;;;;20.17;39.36;98277.88;4954988;28;20200;-92
2023/02/20 08:39:20;;;;;;;3.03;1.70;;;;;;;18.95;39.64;98067.97;4921186;29;20202;-93
2023/02/20 08:41:47;;;;;;;2.50;1.40;;;;;;;19.69;39.13;98197.31;4932231;29;20202;-91
2023/02/20 08:44:13;;;;;;;2.63;1.70;;;;;;;20.52;38.97;98340.75;4954208;28;20208;-92
2023/02/20 08:46:49;;;;;;;1.87;1.33;;;;;;;20.31;38.71;98304.88;4939612;29;20197;-92
2023/02/20 08:49:17;;;;;;;3.23;1.97;;;;;;;20.17;38.63;98274.44;4930888;29;20196;-93
2023/02/20 08:51:44;;;;;;;2.23;1.80;;;;;;;20.73;38.67;98363.06;4951225;28;20192;-93
2023/02/20 08:54:11;;;;;;;5.33;1.67;;;;;;;19.94;39.08;98230.84;4937206;29;20309;-94
2023/02/20 08:56:38;;;;;;;2.03;1.47;;;;;;;19.66;39.57;98176.78;4937825;29;20190;-93
2023/02/20 08:59:05;;;;;;;4.07;1.70;;;;;;;19.78;39.59;98177.34;4935352;29;20212;-93
2023/02/20 09:01:31;;;;;;;5.43;1.70;;;;;;;20.34;39.98;98263.31;4935364;29;20249;-92
2023/02/20 09:03:58;;;;;;;1.57;1.33;;;;;;;20.17;39.06;98239.59;4933811;29;20210;-91
2023/02/20 09:06:25;;;;;;;1.63;1.20;;;;;;;20.23;38.83;98233.88;4937880;29;20193;-92
2023/02/20 09:08:52;;;;;;;1.63;1.20;;;;;;;19.73;39.06;98137.13;4935255;28;20205;-92
2023/02/20 09:11:19;;;;;;;2.90;1.57;;;;;;;19.71;39.08;98123.44;4933237;29;20247;-91
2023/02/20 09:13:47;;;;;;;3.60;1.43;;;;;;;20.26;38.90;98219.59;4932465;29;20217;-92
2023/02/20 09:16:14;;;;;;;2.87;1.47;;;;;;;20.27;38.76;98221.31;4951542;28;20217;-91
2023/02/20 09:18:42;;;;;;;2.33;1.47;;;;;;;20.35;38.76;98242.97;4927429;29;20214;-93
2023/02/20 09:21:10;;;;;;;1.90;1.23;;;;;;;20.36;38.46;98248.94;4937762;29;20213;-92
2023/02/20 09:23:37;;;;;;;1.87;1.30;;;;;;;19.83;38.79;98145.28;4950101;28;20237;-93
2023/02/20 09:26:04;;;;;;;2.07;1.30;;;;;;;19.60;38.29;98105.09;4934387;29;20244;-91
2023/02/20 09:28:30;;;;;;;1.30;1.13;;;;;;;20.33;38.87;98216.50;4918228;29;20237;-92
2023/02/20 09:30:59;;;;;;;1.63;1.50;;;;;;;20.01;38.44;98152.88;4929285;29;20234;-92
2023/02/20 09:33:26;;;;;;;2.90;1.20;;;;;;;19.99;38.09;98145.16;4929306;29;20201;-92
2023/02/20 09:35:53;;;;;;;1.67;1.20;;;;;;;20.27;37.90;98184.69;4946578;28;20230;-92
2023/02/20 09:38:21;;;;;;;1.50;1.10;;;;;;;20.83;38.02;98283.47;4934362;29;20229;-92
2023/02/20 09:40:48;;;;;;;1.33;1.20;;;;;;;20.24;37.72;98177.78;4946524;28;20257;-92
2023/02/20 09:43:24;;;;;;;1.40;1.30;;;;;;;21.18;37.61;98338.69;4918140;29;20238;-93
2023/02/20 09:46:12;;;;;;;1.53;1.20;;;;;;;21.18;37.39;98341.25;4943733;28;20227;-92
2023/02/20 09:48:42;;;;;;;1.57;1.30;;;;;;;21.18;37.33;98342.13;4926700;29;20201;-93
2023/02/20 09:51:21;;;;;;;1.53;1.13;;;;;;;18.68;37.43;97907.94;4934193;29;20182;-92
2023/02/20 09:53:59;;;;;;;1.60;1.20;;;;;;;19.98;37.11;98146.78;4934491;29;20234;-92
2023/02/20 09:56:48;;;;;;;1.93;1.20;;;;;;;19.55;37.06;98054.72;4909668;29;20209;-93
2023/02/20 09:59:17;;;;;;;2.23;1.30;;;;;;;19.58;36.98;98072.69;4925386;29;20200;-93
2023/02/20 10:02:20;;;;;;;3.47;1.10;;;;;;;21.18;36.76;98334.47;4928836;29;20194;-93
2023/02/20 10:04:51;;;;;;;1.27;1.13;;;;;;;20.16;37.03;98147.63;4931209;29;20214;-93
2023/02/20 10:07:36;;;;;;;2.73;1.17;;;;;;;20.55;36.81;98220.88;4930249;29;20209;-93
2023/02/20 10:10:17;;;;;;;1.47;1.13;;;;;;;20.24;36.72;98167.59;4917211;29;20233;-93
2023/02/20 10:12:55;;;;;;;1.63;1.47;;;;;;;21.18;36.73;98333.59;4928726;29;20367;-92
2023/02/20 10:15:51;;;;;;;1.83;1.30;;;;;;;21.19;37.12;98335.31;4928437;29;20201;-93
2023/02/20 10:18:27;;;;;;;1.23;1.10;;;;;;;21.18;36.90;98329.34;4920799;29;20191;-92
2023/02/20 10:21:02;;;;;;;1.43;1.23;;;;;;;21.19;36.85;98325.09;4930510;29;20220;-92
2023/02/20 10:23:51;;;;;;;1.43;1.27;;;;;;;19.33;36.93;98016.31;4925444;28;20224;-92
2023/02/20 10:26:36;;;;;;;1.37;1.27;;;;;;;20.78;36.93;98258.53;4934015;28;20208;-92
2023/02/20 10:29:15;;;;;;;1.20;1.10;;;;;;;20.73;37.07;98245.56;4912292;29;20213;-92
2023/02/20 10:31:44;;;;;;;2.83;1.10;;;;;;;20.16;37.03;98140.84;4902770;29;20194;-93
2023/02/20 10:34:21;;;;;;;1.20;1.10;;;;;;;20.11;36.88;98138.88;4912489;29;20206;-92
2023/02/20 10:36:53;;;;;;;1.57;1.17;;;;;;;19.98;37.00;98100.06;4945032;28;20252;-92
2023/02/20 10:39:21;;;;;;;1.03;1.00;;;;;;;20.03;37.29;98100.25;4931382;29;20187;-93
2023/02/20 10:42:05;;;;;;;4.53;1.30;;;;;;;21.24;37.97;98298.06;4929414;29;20257;-92
2023/02/20 10:44:56;;;;;;;1.03;1.00;;;;;;;20.62;38.52;98205.91;4928257;29;20241;-93
2023/02/20 10:47:30;;;;;;;1.17;0.90;;;;;;;21.25;38.13;98290.44;4916210;29;20182;-93
2023/02/20 10:50:18;;;;;;;2.53;1.00;;;;;;;20.43;38.45;98164.16;4923926;29;20185;-93
2023/02/20 10:52:48;;;;;;;1.03;1.00;;;;;;;21.27;38.79;98287.97;4925706;29;20258;-92
2023/02/20 10:55:32;;;;;;;1.50;1.13;;;;;;;20.45;39.01;98134.44;4930049;29;20249;-92
2023/02/20 10:58:04;;;;;;;1.23;1.00;;;;;;;20.01;38.94;98078.88;4931513;29;20221;-92
2023/02/20 11:00:38;;;;;;;1.70;1.07;;;;;;;20.44;38.61;98138.69;4910392;29;20217;-92
2023/02/20 11:03:11;;;;;;;1.90;1.33;;;;;;;19.72;38.61;98013.84;4924034;29;20257;-93
2023/02/20 11:05:42;;;;;;;3.50;1.40;;;;;;;20.67;38.23;98186.53;4932016;29;20213;-92
2023/02/20 11:08:12;;;;;;;1.93;1.20;;;;;;;20.15;38.38;98066.75;4940764;28;20201;-92
2023/02/20 11:10:38;;;;;;;1.60;1.20;;;;;;;19.55;38.69;97958.72;4915098;29;20220;-92
2023/02/20 11:13:06;;;;;;;3.00;1.30;;;;;;;20.23;38.54;98078.19;4936620;29;20205;-91
2023/02/20 11:15:33;;;;;;;3.13;1.10;;;;;;;20.08;38.87;98035.00;4927164;29;20209;-93
2023/02/20 11:18:00;;;;;;;2.67;1.30;;;;;;;19.37;38.72;97906.94;4925566;29;20235;-93
2023/02/20 11:20:40;;;;;;;1.63;1.30;;;;;;;21.33;38.62;98258.41;4932728;29;20213;-93
2023/02/20 11:23:07;;;;;;;4.03;1.53;;;;;;;19.76;37.82;98000.44;4927146;29;20245;-92
2023/02/20 11:25:34;;;;;;;2.30;1.20;;;;;;;20.48;37.50;98089.50;4939739;28;20274;-93
2023/02/20 11:28:23;;;;;;;2.17;1.40;;;;;;;21.35;37.09;98231.22;4925674;29;20214;-93
2023/02/20 11:30:58;;;;;;;2.73;1.40;;;;;;;20.60;36.73;98110.44;4927241;28;20206;-92
2023/02/20 11:33:25;;;;;;;2.40;1.10;;;;;;;19.20;36.92;97869.59;4913802;29;20227;-92
2023/02/20 11:35:55;;;;;;;1.67;1.23;;;;;;;20.73;36.70;98129.72;4919666;29;20210;-93
2023/02/20 11:38:22;;;;;;;2.43;1.33;;;;;;;18.97;36.46;97857.53;4919398;29;20197;-93
2023/02/20 11:41:00;;;;;;;2.30;1.20;;;;;;;21.37;36.64;98221.03;4933405;29;20222;-93
2023/02/20 11:43:35;;;;;;;1.87;1.20;;;;;;;20.37;36.41;98060.09;4922570;29;20233;-93
2023/02/20 11:46:22;;;;;;;0.93;0.93;;;;;;;19.54;36.39;97928.06;4942190;28;20216;-94
2023/02/20 11:49:06;;;;;;;1.67;1.07;;;;;;;19.99;36.20;97958.91;4925731;29;20234;-92
2023/02/20 11:51:40;;;;;;;1.10;1.00;;;;;;;20.68;36.29;98086.13;4929880;29;20205;-93
2023/02/20 11:54:20;;;;;;;1.80;1.10;;;;;;;21.02;36.60;98132.69;4917797;29;20201;-93
2023/02/20 11:57:18;;;;;;;1.90;1.13;;;;;;;20.22;36.44;98000.75;4936292;29;20206;-92
2023/02/20 11:59:49;;;;;;;1.20;1.10;;;;;;;19.77;36.12;97907.81;4938157;29;20225;-91
2023/02/20 12:02:18;;;;;;;2.53;1.20;;;;;;;21.44;36.31;98184.69;4922424;29;20249;-92
2023/02/20 12:05:13;;;;;;;1.83;1.10;;;;;;;21.44;36.11;98182.16;4936925;29;20229;-93
2023/02/20 12:07:42;;;;;;;1.97;1.50;;;;;;;20.56;37.72;98018.31;4937252;29;20193;-93
2023/02/20 12:10:39;;;;;;;3.60;1.30;;;;;;;20.13;38.43;97946.78;4931299;29;20217;-91
2023/02/20 12:13:06;;;;;;;2.50;1.60;;;;;;;19.69;39.70;97876.00;4930152;29;20227;-92
2023/02/20 12:15:33;;;;;;;2.47;1.20;;;;;;;19.68;39.44;97858.09;4919339;29;20234;-92
2023/02/20 12:18:44;;;;;;;1.70;1.10;;;;;;;21.44;39.52;98169.34;4929436;29;20191;-92
2023/02/20 12:21:25;;;;;;;3.10;1.33;;;;;;;20.07;39.50;97946.47;4942281;28;20226;-93
2023/02/20 12:24:23;;;;;;;1.50;1.10;;;;;;;21.42;39.50;98155.63;4913256;29;20218;-92
2023/02/20 12:26:58;;;;;;;1.30;1.20;;;;;;;20.24;39.64;97968.50;4926422;29;20265;-93